Terminal Aerodrome Forecast
Issued by NWS

Home | Current Version | Previous Version | Text Only | Print | Product List | Glossary On
Versions: 1 2 3 4 5 6 7 8 9 10 11 12 13 14 15 16 17 18
875
FTUS41 KPBZ 301407 AAB
TAFZZV
TAF AMD
KZZV 301407Z 3014/3112 14008KT P6SM VCTS BKN080CB
     FM301600 12012KT P6SM BKN080
     FM302000 10012KT P6SM VCSH BKN060
     FM310300 14012KT P6SM -RA OVC035 WS020/20045KT
     FM310600 16012KT 4SM -RA OVC015 WS020/20045KT
     FM311000 18007KT 4SM -SHRA BKN012=

USA.gov is the U.S. government's official web portal to all federal, state and local government web resources and services.